sensor_id;sensor_type;location;lat;lon;timestamp;P1;durP1;ratioP1;P2;durP2;ratioP2
22490;SDS011;11412;50.802;4.350;2022-09-09T00:03:43;4.57;;;0.80;;
22490;SDS011;11412;50.802;4.350;2022-09-09T00:06:30;2.72;;;1.05;;
22490;SDS011;11412;50.802;4.350;2022-09-09T00:11:26;3.92;;;0.90;;
22490;SDS011;11412;50.802;4.350;2022-09-09T00:13:57;2.95;;;0.80;;
22490;SDS011;11412;50.802;4.350;2022-09-09T00:16:28;1.73;;;0.80;;
22490;SDS011;11412;50.802;4.350;2022-09-09T00:30:13;3.45;;;0.90;;
22490;SDS011;11412;50.802;4.350;2022-09-09T00:32:48;3.92;;;1.00;;
22490;SDS011;11412;50.802;4.350;2022-09-09T00:35:27;4.72;;;0.80;;
22490;SDS011;11412;50.802;4.350;2022-09-09T00:37:58;4.43;;;0.90;;
22490;SDS011;11412;50.802;4.350;2022-09-09T00:40:36;6.95;;;0.98;;
22490;SDS011;11412;50.802;4.350;2022-09-09T00:43:29;2.28;;;1.00;;
22490;SDS011;11412;50.802;4.350;2022-09-09T00:46:13;3.70;;;1.45;;
22490;SDS011;11412;50.802;4.350;2022-09-09T00:52:17;2.85;;;0.90;;
22490;SDS011;11412;50.802;4.350;2022-09-09T00:58:22;2.65;;;0.70;;
22490;SDS011;11412;50.802;4.350;2022-09-09T01:00:52;2.53;;;0.98;;
22490;SDS011;11412;50.802;4.350;2022-09-09T01:06:00;1.65;;;0.68;;
22490;SDS011;11412;50.802;4.350;2022-09-09T01:11:10;3.63;;;0.88;;
22490;SDS011;11412;50.802;4.350;2022-09-09T01:13:47;1.17;;;0.90;;
22490;SDS011;11412;50.802;4.350;2022-09-09T01:16:20;3.85;;;1.38;;
22490;SDS011;11412;50.802;4.350;2022-09-09T01:18:47;0.98;;;0.52;;
22490;SDS011;11412;50.802;4.350;2022-09-09T01:26:46;5.05;;;0.95;;
22490;SDS011;11412;50.802;4.350;2022-09-09T01:29:16;3.85;;;0.80;;
22490;SDS011;11412;50.802;4.350;2022-09-09T01:31:59;1.95;;;0.90;;
22490;SDS011;11412;50.802;4.350;2022-09-09T01:34:28;4.07;;;1.08;;
22490;SDS011;11412;50.802;4.350;2022-09-09T01:37:08;5.05;;;1.00;;
22490;SDS011;11412;50.802;4.350;2022-09-09T01:39:36;5.18;;;1.00;;
22490;SDS011;11412;50.802;4.350;2022-09-09T01:42:04;2.83;;;1.02;;
22490;SDS011;11412;50.802;4.350;2022-09-09T01:44:33;2.70;;;1.02;;
22490;SDS011;11412;50.802;4.350;2022-09-09T01:47:00;4.97;;;1.10;;
22490;SDS011;11412;50.802;4.350;2022-09-09T01:49:26;7.18;;;1.58;;
22490;SDS011;11412;50.802;4.350;2022-09-09T01:51:52;3.75;;;1.52;;
22490;SDS011;11412;50.802;4.350;2022-09-09T01:54:20;3.58;;;0.75;;
22490;SDS011;11412;50.802;4.350;2022-09-09T01:57:06;3.70;;;1.52;;
22490;SDS011;11412;50.802;4.350;2022-09-09T02:04:47;3.53;;;1.25;;
22490;SDS011;11412;50.802;4.350;2022-09-09T02:09:47;8.65;;;1.50;;
22490;SDS011;11412;50.802;4.350;2022-09-09T02:12:17;6.50;;;2.00;;
22490;SDS011;11412;50.802;4.350;2022-09-09T02:14:50;7.20;;;1.35;;
22490;SDS011;11412;50.802;4.350;2022-09-09T02:17:23;6.00;;;1.88;;
22490;SDS011;11412;50.802;4.350;2022-09-09T02:19:58;6.13;;;1.70;;
22490;SDS011;11412;50.802;4.350;2022-09-09T02:22:35;4.32;;;1.17;;
22490;SDS011;11412;50.802;4.350;2022-09-09T02:25:05;7.13;;;1.73;;
22490;SDS011;11412;50.802;4.350;2022-09-09T02:27:33;5.55;;;1.65;;
22490;SDS011;11412;50.802;4.350;2022-09-09T02:29:59;6.70;;;1.30;;
22490;SDS011;11412;50.802;4.350;2022-09-09T02:32:27;4.63;;;1.42;;
22490;SDS011;11412;50.802;4.350;2022-09-09T02:34:57;7.15;;;2.05;;
22490;SDS011;11412;50.802;4.350;2022-09-09T02:37:31;7.63;;;1.80;;
22490;SDS011;11412;50.802;4.350;2022-09-09T02:40:05;3.88;;;1.38;;
22490;SDS011;11412;50.802;4.350;2022-09-09T02:42:38;3.17;;;1.33;;
22490;SDS011;11412;50.802;4.350;2022-09-09T02:45:09;6.38;;;1.52;;
22490;SDS011;11412;50.802;4.350;2022-09-09T02:47:47;5.38;;;1.42;;
22490;SDS011;11412;50.802;4.350;2022-09-09T02:50:33;5.05;;;1.58;;
22490;SDS011;11412;50.802;4.350;2022-09-09T02:53:22;7.80;;;1.70;;
22490;SDS011;11412;50.802;4.350;2022-09-09T02:56:04;7.43;;;1.75;;
22490;SDS011;11412;50.802;4.350;2022-09-09T02:58:32;5.25;;;1.17;;
22490;SDS011;11412;50.802;4.350;2022-09-09T03:00:58;5.20;;;1.58;;
22490;SDS011;11412;50.802;4.350;2022-09-09T03:03:26;4.65;;;1.50;;
22490;SDS011;11412;50.802;4.350;2022-09-09T03:05:52;8.65;;;1.20;;
22490;SDS011;11412;50.802;4.350;2022-09-09T03:08:17;9.32;;;1.42;;
22490;SDS011;11412;50.802;4.350;2022-09-09T03:10:43;7.95;;;1.60;;
22490;SDS011;11412;50.802;4.350;2022-09-09T03:13:08;6.30;;;1.60;;
22490;SDS011;11412;50.802;4.350;2022-09-09T03:15:35;7.25;;;1.40;;
22490;SDS011;11412;50.802;4.350;2022-09-09T03:18:01;4.57;;;1.25;;
22490;SDS011;11412;50.802;4.350;2022-09-09T03:20:28;10.48;;;2.15;;
22490;SDS011;11412;50.802;4.350;2022-09-09T03:22:54;5.25;;;1.40;;
22490;SDS011;11412;50.802;4.350;2022-09-09T03:25:21;7.80;;;1.48;;
22490;SDS011;11412;50.802;4.350;2022-09-09T03:27:51;4.00;;;1.45;;
22490;SDS011;11412;50.802;4.350;2022-09-09T03:30:23;5.70;;;1.30;;
22490;SDS011;11412;50.802;4.350;2022-09-09T03:32:50;6.57;;;1.50;;
22490;SDS011;11412;50.802;4.350;2022-09-09T03:35:17;7.30;;;1.88;;
22490;SDS011;11412;50.802;4.350;2022-09-09T03:37:42;11.15;;;1.73;;
22490;SDS011;11412;50.802;4.350;2022-09-09T03:40:08;5.30;;;1.27;;
22490;SDS011;11412;50.802;4.350;2022-09-09T03:42:35;7.97;;;1.70;;
22490;SDS011;11412;50.802;4.350;2022-09-09T03:45:05;8.38;;;1.48;;
22490;SDS011;11412;50.802;4.350;2022-09-09T03:47:32;7.82;;;1.60;;
22490;SDS011;11412;50.802;4.350;2022-09-09T03:49:58;7.93;;;1.48;;
22490;SDS011;11412;50.802;4.350;2022-09-09T03:52:24;6.85;;;1.33;;
22490;SDS011;11412;50.802;4.350;2022-09-09T03:54:51;11.50;;;2.42;;
22490;SDS011;11412;50.802;4.350;2022-09-09T03:57:17;6.40;;;1.65;;
22490;SDS011;11412;50.802;4.350;2022-09-09T03:59:43;9.70;;;1.60;;
22490;SDS011;11412;50.802;4.350;2022-09-09T04:02:09;9.75;;;1.85;;
22490;SDS011;11412;50.802;4.350;2022-09-09T04:04:35;7.03;;;1.95;;
22490;SDS011;11412;50.802;4.350;2022-09-09T04:07:01;10.07;;;1.90;;
22490;SDS011;11412;50.802;4.350;2022-09-09T04:09:26;11.07;;;2.08;;
22490;SDS011;11412;50.802;4.350;2022-09-09T04:11:52;5.47;;;1.55;;
22490;SDS011;11412;50.802;4.350;2022-09-09T04:14:18;8.55;;;1.70;;
22490;SDS011;11412;50.802;4.350;2022-09-09T04:16:45;6.25;;;1.70;;
22490;SDS011;11412;50.802;4.350;2022-09-09T04:19:11;4.40;;;1.63;;
22490;SDS011;11412;50.802;4.350;2022-09-09T04:21:41;7.38;;;2.03;;
22490;SDS011;11412;50.802;4.350;2022-09-09T04:24:07;6.18;;;1.60;;
22490;SDS011;11412;50.802;4.350;2022-09-09T04:26:34;4.18;;;1.58;;
22490;SDS011;11412;50.802;4.350;2022-09-09T04:29:02;7.00;;;2.13;;
22490;SDS011;11412;50.802;4.350;2022-09-09T04:31:28;9.07;;;2.03;;
22490;SDS011;11412;50.802;4.350;2022-09-09T04:33:54;6.07;;;2.00;;
22490;SDS011;11412;50.802;4.350;2022-09-09T04:36:20;8.35;;;2.05;;
22490;SDS011;11412;50.802;4.350;2022-09-09T04:38:46;10.93;;;2.53;;
22490;SDS011;11412;50.802;4.350;2022-09-09T04:41:13;10.20;;;1.73;;
22490;SDS011;11412;50.802;4.350;2022-09-09T04:43:40;8.05;;;2.03;;
22490;SDS011;11412;50.802;4.350;2022-09-09T04:46:06;9.50;;;2.13;;
22490;SDS011;11412;50.802;4.350;2022-09-09T04:48:32;7.25;;;2.00;;
22490;SDS011;11412;50.802;4.350;2022-09-09T04:50:58;8.00;;;2.08;;
22490;SDS011;11412;50.802;4.350;2022-09-09T04:53:26;8.93;;;1.80;;
22490;SDS011;11412;50.802;4.350;2022-09-09T04:55:52;5.38;;;1.52;;
22490;SDS011;11412;50.802;4.350;2022-09-09T04:58:26;9.52;;;1.83;;
22490;SDS011;11412;50.802;4.350;2022-09-09T05:00:52;12.40;;;2.42;;
22490;SDS011;11412;50.802;4.350;2022-09-09T05:03:17;9.48;;;1.83;;
22490;SDS011;11412;50.802;4.350;2022-09-09T05:05:43;10.38;;;1.77;;
22490;SDS011;11412;50.802;4.350;2022-09-09T05:08:09;7.75;;;2.13;;
22490;SDS011;11412;50.802;4.350;2022-09-09T05:10:36;7.65;;;1.90;;
22490;SDS011;11412;50.802;4.350;2022-09-09T05:13:03;8.68;;;2.20;;
22490;SDS011;11412;50.802;4.350;2022-09-09T05:15:29;5.82;;;1.88;;
22490;SDS011;11412;50.802;4.350;2022-09-09T05:17:57;8.95;;;2.22;;
22490;SDS011;11412;50.802;4.350;2022-09-09T05:20:26;12.85;;;2.45;;
22490;SDS011;11412;50.802;4.350;2022-09-09T05:22:53;6.25;;;2.10;;
22490;SDS011;11412;50.802;4.350;2022-09-09T05:25:19;7.72;;;1.90;;
22490;SDS011;11412;50.802;4.350;2022-09-09T05:27:47;5.90;;;2.20;;
22490;SDS011;11412;50.802;4.350;2022-09-09T05:30:12;9.23;;;2.45;;
22490;SDS011;11412;50.802;4.350;2022-09-09T05:32:38;5.50;;;1.85;;
22490;SDS011;11412;50.802;4.350;2022-09-09T05:35:04;7.97;;;2.35;;
22490;SDS011;11412;50.802;4.350;2022-09-09T05:37:30;9.10;;;2.10;;
22490;SDS011;11412;50.802;4.350;2022-09-09T05:39:56;9.38;;;2.00;;
22490;SDS011;11412;50.802;4.350;2022-09-09T05:42:23;11.45;;;2.55;;
22490;SDS011;11412;50.802;4.350;2022-09-09T05:44:48;9.10;;;2.00;;
22490;SDS011;11412;50.802;4.350;2022-09-09T05:47:15;6.10;;;1.80;;
22490;SDS011;11412;50.802;4.350;2022-09-09T05:49:42;7.97;;;1.63;;
22490;SDS011;11412;50.802;4.350;2022-09-09T05:52:08;13.15;;;2.10;;
22490;SDS011;11412;50.802;4.350;2022-09-09T05:54:34;8.60;;;2.20;;
22490;SDS011;11412;50.802;4.350;2022-09-09T05:57:02;12.60;;;2.38;;
22490;SDS011;11412;50.802;4.350;2022-09-09T05:59:28;7.70;;;1.98;;
22490;SDS011;11412;50.802;4.350;2022-09-09T06:01:54;5.40;;;1.70;;
22490;SDS011;11412;50.802;4.350;2022-09-09T06:04:19;5.95;;;1.98;;
22490;SDS011;11412;50.802;4.350;2022-09-09T06:06:49;10.48;;;1.95;;
22490;SDS011;11412;50.802;4.350;2022-09-09T06:09:15;7.57;;;1.80;;
22490;SDS011;11412;50.802;4.350;2022-09-09T06:11:41;9.48;;;2.60;;
22490;SDS011;11412;50.802;4.350;2022-09-09T06:14:07;9.98;;;2.30;;
22490;SDS011;11412;50.802;4.350;2022-09-09T06:16:34;9.85;;;2.28;;
22490;SDS011;11412;50.802;4.350;2022-09-09T06:19:02;7.07;;;1.95;;
22490;SDS011;11412;50.802;4.350;2022-09-09T06:21:33;5.30;;;1.55;;
22490;SDS011;11412;50.802;4.350;2022-09-09T06:24:02;10.07;;;2.10;;
22490;SDS011;11412;50.802;4.350;2022-09-09T06:26:31;9.00;;;2.25;;
22490;SDS011;11412;50.802;4.350;2022-09-09T06:28:59;7.55;;;2.38;;
22490;SDS011;11412;50.802;4.350;2022-09-09T06:31:26;5.18;;;1.67;;
22490;SDS011;11412;50.802;4.350;2022-09-09T06:33:55;7.22;;;1.73;;
22490;SDS011;11412;50.802;4.350;2022-09-09T06:38:48;6.65;;;1.60;;
22490;SDS011;11412;50.802;4.350;2022-09-09T06:41:15;5.32;;;1.70;;
22490;SDS011;11412;50.802;4.350;2022-09-09T06:43:43;7.95;;;1.88;;
22490;SDS011;11412;50.802;4.350;2022-09-09T06:46:16;5.25;;;2.03;;
22490;SDS011;11412;50.802;4.350;2022-09-09T06:48:49;7.45;;;1.60;;
22490;SDS011;11412;50.802;4.350;2022-09-09T06:51:18;7.38;;;1.55;;
22490;SDS011;11412;50.802;4.350;2022-09-09T06:53:46;3.50;;;1.65;;
22490;SDS011;11412;50.802;4.350;2022-09-09T06:56:22;11.50;;;2.15;;
22490;SDS011;11412;50.802;4.350;2022-09-09T06:58:50;8.13;;;1.67;;
22490;SDS011;11412;50.802;4.350;2022-09-09T07:01:24;5.43;;;1.10;;
22490;SDS011;11412;50.802;4.350;2022-09-09T07:03:53;11.05;;;2.03;;
22490;SDS011;11412;50.802;4.350;2022-09-09T07:06:29;9.18;;;2.05;;
22490;SDS011;11412;50.802;4.350;2022-09-09T07:08:58;6.97;;;1.73;;
22490;SDS011;11412;50.802;4.350;2022-09-09T07:11:29;6.03;;;1.58;;
22490;SDS011;11412;50.802;4.350;2022-09-09T07:13:59;8.50;;;1.98;;
22490;SDS011;11412;50.802;4.350;2022-09-09T07:16:26;8.60;;;1.35;;
22490;SDS011;11412;50.802;4.350;2022-09-09T07:18:56;7.05;;;1.70;;
22490;SDS011;11412;50.802;4.350;2022-09-09T07:21:27;9.52;;;1.77;;
22490;SDS011;11412;50.802;4.350;2022-09-09T07:23:54;12.90;;;1.40;;
22490;SDS011;11412;50.802;4.350;2022-09-09T07:26:20;10.00;;;1.45;;
22490;SDS011;11412;50.802;4.350;2022-09-09T07:28:48;7.50;;;2.47;;
22490;SDS011;11412;50.802;4.350;2022-09-09T07:31:19;10.25;;;2.15;;
22490;SDS011;11412;50.802;4.350;2022-09-09T07:33:47;8.55;;;2.03;;
22490;SDS011;11412;50.802;4.350;2022-09-09T07:36:15;6.43;;;1.95;;
22490;SDS011;11412;50.802;4.350;2022-09-09T07:38:43;14.73;;;2.08;;
22490;SDS011;11412;50.802;4.350;2022-09-09T07:41:12;6.68;;;2.00;;
22490;SDS011;11412;50.802;4.350;2022-09-09T07:43:41;11.02;;;1.95;;
22490;SDS011;11412;50.802;4.350;2022-09-09T07:46:09;7.32;;;2.13;;
22490;SDS011;11412;50.802;4.350;2022-09-09T07:48:35;6.50;;;2.25;;
22490;SDS011;11412;50.802;4.350;2022-09-09T07:51:06;8.55;;;1.77;;
22490;SDS011;11412;50.802;4.350;2022-09-09T07:53:37;10.40;;;1.80;;
22490;SDS011;11412;50.802;4.350;2022-09-09T07:56:10;5.82;;;1.60;;
22490;SDS011;11412;50.802;4.350;2022-09-09T07:58:38;6.85;;;1.67;;
22490;SDS011;11412;50.802;4.350;2022-09-09T08:01:09;7.50;;;2.03;;
22490;SDS011;11412;50.802;4.350;2022-09-09T08:03:37;9.35;;;2.10;;
22490;SDS011;11412;50.802;4.350;2022-09-09T08:06:03;5.85;;;1.80;;
22490;SDS011;11412;50.802;4.350;2022-09-09T08:08:32;9.68;;;2.17;;
22490;SDS011;11412;50.802;4.350;2022-09-09T08:11:02;8.43;;;1.90;;
22490;SDS011;11412;50.802;4.350;2022-09-09T08:13:33;8.77;;;1.92;;
22490;SDS011;11412;50.802;4.350;2022-09-09T08:16:06;7.15;;;2.15;;
22490;SDS011;11412;50.802;4.350;2022-09-09T08:18:34;10.23;;;2.28;;
22490;SDS011;11412;50.802;4.350;2022-09-09T08:21:14;7.97;;;2.03;;
22490;SDS011;11412;50.802;4.350;2022-09-09T08:23:42;8.57;;;2.20;;
22490;SDS011;11412;50.802;4.350;2022-09-09T08:26:13;4.30;;;1.52;;
22490;SDS011;11412;50.802;4.350;2022-09-09T08:28:49;10.85;;;1.67;;
22490;SDS011;11412;50.802;4.350;2022-09-09T08:31:18;4.85;;;1.55;;
22490;SDS011;11412;50.802;4.350;2022-09-09T08:33:46;7.75;;;2.10;;
22490;SDS011;11412;50.802;4.350;2022-09-09T08:36:13;7.82;;;2.05;;
22490;SDS011;11412;50.802;4.350;2022-09-09T08:38:40;7.18;;;1.80;;
22490;SDS011;11412;50.802;4.350;2022-09-09T08:41:12;15.77;;;3.33;;
22490;SDS011;11412;50.802;4.350;2022-09-09T08:52:30;9.85;;;1.70;;
22490;SDS011;11412;50.802;4.350;2022-09-09T08:58:21;8.77;;;2.05;;
22490;SDS011;11412;50.802;4.350;2022-09-09T09:00:54;5.00;;;1.30;;
22490;SDS011;11412;50.802;4.350;2022-09-09T09:03:37;8.80;;;2.08;;
22490;SDS011;11412;50.802;4.350;2022-09-09T09:11:58;6.65;;;2.38;;
22490;SDS011;11412;50.802;4.350;2022-09-09T09:14:27;7.47;;;2.00;;
22490;SDS011;11412;50.802;4.350;2022-09-09T09:16:59;10.23;;;2.00;;
22490;SDS011;11412;50.802;4.350;2022-09-09T09:19:28;5.57;;;1.92;;
22490;SDS011;11412;50.802;4.350;2022-09-09T09:22:57;7.53;;;1.90;;
22490;SDS011;11412;50.802;4.350;2022-09-09T09:28:00;5.35;;;1.90;;
22490;SDS011;11412;50.802;4.350;2022-09-09T09:30:44;7.45;;;1.70;;
22490;SDS011;11412;50.802;4.350;2022-09-09T09:36:14;10.77;;;2.22;;
22490;SDS011;11412;50.802;4.350;2022-09-09T09:38:51;7.32;;;2.22;;
22490;SDS011;11412;50.802;4.350;2022-09-09T09:44:20;8.80;;;2.30;;
22490;SDS011;11412;50.802;4.350;2022-09-09T09:46:47;11.70;;;2.42;;
22490;SDS011;11412;50.802;4.350;2022-09-09T09:49:12;7.35;;;1.88;;
22490;SDS011;11412;50.802;4.350;2022-09-09T09:51:38;5.72;;;1.95;;
22490;SDS011;11412;50.802;4.350;2022-09-09T09:54:21;6.15;;;1.95;;
22490;SDS011;11412;50.802;4.350;2022-09-09T09:56:53;4.82;;;1.90;;
22490;SDS011;11412;50.802;4.350;2022-09-09T10:04:20;4.22;;;1.88;;
22490;SDS011;11412;50.802;4.350;2022-09-09T10:06:48;8.30;;;2.20;;
22490;SDS011;11412;50.802;4.350;2022-09-09T10:09:25;8.55;;;1.63;;
22490;SDS011;11412;50.802;4.350;2022-09-09T10:22:35;6.45;;;2.83;;
22490;SDS011;11412;50.802;4.350;2022-09-09T10:33:09;9.32;;;2.20;;
22490;SDS011;11412;50.802;4.350;2022-09-09T10:38:48;5.20;;;1.80;;
22490;SDS011;11412;50.802;4.350;2022-09-09T10:41:29;7.78;;;1.92;;
22490;SDS011;11412;50.802;4.350;2022-09-09T10:51:27;6.78;;;1.55;;
22490;SDS011;11412;50.802;4.350;2022-09-09T10:54:22;6.00;;;1.38;;
22490;SDS011;11412;50.802;4.350;2022-09-09T10:57:00;8.50;;;1.98;;
22490;SDS011;11412;50.802;4.350;2022-09-09T10:59:40;8.18;;;1.52;;
22490;SDS011;11412;50.802;4.350;2022-09-09T11:02:18;5.15;;;1.50;;
22490;SDS011;11412;50.802;4.350;2022-09-09T11:04:54;12.02;;;1.95;;
22490;SDS011;11412;50.802;4.350;2022-09-09T11:07:34;5.80;;;1.83;;
22490;SDS011;11412;50.802;4.350;2022-09-09T11:10:11;5.95;;;1.55;;
22490;SDS011;11412;50.802;4.350;2022-09-09T11:12:43;7.47;;;1.83;;
22490;SDS011;11412;50.802;4.350;2022-09-09T11:18:01;5.90;;;1.65;;
22490;SDS011;11412;50.802;4.350;2022-09-09T11:20:29;3.78;;;1.65;;
22490;SDS011;11412;50.802;4.350;2022-09-09T11:25:32;8.90;;;2.50;;
22490;SDS011;11412;50.802;4.350;2022-09-09T11:38:59;5.50;;;1.40;;
22490;SDS011;11412;50.802;4.350;2022-09-09T11:41:32;4.50;;;1.30;;
22490;SDS011;11412;50.802;4.350;2022-09-09T11:44:08;10.30;;;1.80;;
22490;SDS011;11412;50.802;4.350;2022-09-09T11:46:37;7.25;;;1.50;;
22490;SDS011;11412;50.802;4.350;2022-09-09T11:49:06;4.68;;;1.48;;
22490;SDS011;11412;50.802;4.350;2022-09-09T11:51:50;5.57;;;1.42;;
22490;SDS011;11412;50.802;4.350;2022-09-09T11:56:55;5.13;;;1.38;;
22490;SDS011;11412;50.802;4.350;2022-09-09T11:59:22;2.88;;;1.13;;
22490;SDS011;11412;50.802;4.350;2022-09-09T12:04:38;6.22;;;1.70;;
22490;SDS011;11412;50.802;4.350;2022-09-09T12:17:27;6.20;;;1.40;;
22490;SDS011;11412;50.802;4.350;2022-09-09T12:25:41;6.90;;;1.90;;
22490;SDS011;11412;50.802;4.350;2022-09-09T12:31:24;4.40;;;1.20;;
22490;SDS011;11412;50.802;4.350;2022-09-09T12:34:02;7.78;;;1.25;;
22490;SDS011;11412;50.802;4.350;2022-09-09T12:36:34;3.58;;;1.30;;
22490;SDS011;11412;50.802;4.350;2022-09-09T12:39:10;4.50;;;1.30;;
22490;SDS011;11412;50.802;4.350;2022-09-09T12:41:55;6.13;;;1.20;;
22490;SDS011;11412;50.802;4.350;2022-09-09T12:44:22;4.03;;;1.42;;
22490;SDS011;11412;50.802;4.350;2022-09-09T12:46:49;5.10;;;1.30;;
22490;SDS011;11412;50.802;4.350;2022-09-09T12:51:54;2.90;;;1.10;;
22490;SDS011;11412;50.802;4.350;2022-09-09T12:54:22;3.72;;;1.10;;
22490;SDS011;11412;50.802;4.350;2022-09-09T12:56:48;3.95;;;1.20;;
22490;SDS011;11412;50.802;4.350;2022-09-09T12:59:25;5.25;;;1.15;;
22490;SDS011;11412;50.802;4.350;2022-09-09T13:01:59;3.08;;;1.42;;
22490;SDS011;11412;50.802;4.350;2022-09-09T13:04:25;3.55;;;1.00;;
22490;SDS011;11412;50.802;4.350;2022-09-09T13:06:50;7.85;;;1.33;;
22490;SDS011;11412;50.802;4.350;2022-09-09T13:09:17;5.43;;;1.15;;
22490;SDS011;11412;50.802;4.350;2022-09-09T13:11:53;2.10;;;0.80;;
22490;SDS011;11412;50.802;4.350;2022-09-09T13:14:31;1.20;;;1.00;;
22490;SDS011;11412;50.802;4.350;2022-09-09T13:17:03;6.25;;;1.60;;
22490;SDS011;11412;50.802;4.350;2022-09-09T13:19:36;2.00;;;1.10;;
22490;SDS011;11412;50.802;4.350;2022-09-09T13:22:14;1.40;;;1.02;;
22490;SDS011;11412;50.802;4.350;2022-09-09T13:24:46;3.80;;;1.17;;
22490;SDS011;11412;50.802;4.350;2022-09-09T13:27:51;2.67;;;1.13;;
22490;SDS011;11412;50.802;4.350;2022-09-09T13:30:25;4.50;;;1.15;;
22490;SDS011;11412;50.802;4.350;2022-09-09T13:32:59;4.22;;;1.20;;
22490;SDS011;11412;50.802;4.350;2022-09-09T13:35:31;3.60;;;1.17;;
22490;SDS011;11412;50.802;4.350;2022-09-09T13:37:58;4.30;;;0.90;;
22490;SDS011;11412;50.802;4.350;2022-09-09T13:40:25;2.92;;;0.98;;
22490;SDS011;11412;50.802;4.350;2022-09-09T13:42:52;1.13;;;0.80;;
22490;SDS011;11412;50.802;4.350;2022-09-09T13:45:22;3.10;;;0.80;;
22490;SDS011;11412;50.802;4.350;2022-09-09T13:47:51;1.00;;;0.90;;
22490;SDS011;11412;50.802;4.350;2022-09-09T13:52:49;4.97;;;1.00;;
22490;SDS011;11412;50.802;4.350;2022-09-09T13:55:18;3.63;;;0.98;;
22490;SDS011;11412;50.802;4.350;2022-09-09T13:58:02;1.95;;;0.77;;
22490;SDS011;11412;50.802;4.350;2022-09-09T14:00:31;2.75;;;1.00;;
22490;SDS011;11412;50.802;4.350;2022-09-09T14:02:59;4.10;;;1.13;;
22490;SDS011;11412;50.802;4.350;2022-09-09T14:05:27;2.53;;;0.88;;
22490;SDS011;11412;50.802;4.350;2022-09-09T14:07:57;4.15;;;1.30;;
22490;SDS011;11412;50.802;4.350;2022-09-09T14:10:23;4.60;;;0.77;;
22490;SDS011;11412;50.802;4.350;2022-09-09T14:12:48;5.05;;;1.10;;
22490;SDS011;11412;50.802;4.350;2022-09-09T14:15:14;3.95;;;0.90;;
22490;SDS011;11412;50.802;4.350;2022-09-09T14:17:40;5.53;;;1.15;;
22490;SDS011;11412;50.802;4.350;2022-09-09T14:20:06;6.50;;;1.40;;
22490;SDS011;11412;50.802;4.350;2022-09-09T14:22:34;4.30;;;1.10;;
22490;SDS011;11412;50.802;4.350;2022-09-09T14:25:00;4.85;;;1.30;;
22490;SDS011;11412;50.802;4.350;2022-09-09T14:27:27;3.90;;;1.25;;
22490;SDS011;11412;50.802;4.350;2022-09-09T14:29:53;5.03;;;1.65;;
22490;SDS011;11412;50.802;4.350;2022-09-09T14:32:19;2.38;;;1.25;;
22490;SDS011;11412;50.802;4.350;2022-09-09T14:34:46;2.70;;;1.20;;
22490;SDS011;11412;50.802;4.350;2022-09-09T14:37:14;6.22;;;1.40;;
22490;SDS011;11412;50.802;4.350;2022-09-09T14:39:41;2.60;;;0.93;;
22490;SDS011;11412;50.802;4.350;2022-09-09T14:42:09;4.53;;;1.17;;
22490;SDS011;11412;50.802;4.350;2022-09-09T14:44:38;4.30;;;1.40;;
22490;SDS011;11412;50.802;4.350;2022-09-09T14:47:05;3.05;;;1.08;;
22490;SDS011;11412;50.802;4.350;2022-09-09T14:49:33;3.78;;;1.15;;
22490;SDS011;11412;50.802;4.350;2022-09-09T14:51:59;4.03;;;1.20;;
22490;SDS011;11412;50.802;4.350;2022-09-09T14:54:25;4.07;;;1.13;;
22490;SDS011;11412;50.802;4.350;2022-09-09T14:56:50;2.13;;;0.82;;
22490;SDS011;11412;50.802;4.350;2022-09-09T14:59:16;2.83;;;0.85;;
22490;SDS011;11412;50.802;4.350;2022-09-09T15:01:42;2.50;;;1.00;;
22490;SDS011;11412;50.802;4.350;2022-09-09T15:04:07;3.45;;;1.05;;
22490;SDS011;11412;50.802;4.350;2022-09-09T15:06:36;2.75;;;1.05;;
22490;SDS011;11412;50.802;4.350;2022-09-09T15:09:04;5.68;;;1.23;;
22490;SDS011;11412;50.802;4.350;2022-09-09T15:11:35;2.38;;;1.10;;
22490;SDS011;11412;50.802;4.350;2022-09-09T15:14:03;7.20;;;1.38;;
22490;SDS011;11412;50.802;4.350;2022-09-09T15:16:30;4.40;;;1.33;;
22490;SDS011;11412;50.802;4.350;2022-09-09T15:18:57;7.88;;;1.83;;
22490;SDS011;11412;50.802;4.350;2022-09-09T15:21:25;3.80;;;0.85;;
22490;SDS011;11412;50.802;4.350;2022-09-09T15:23:59;2.70;;;1.23;;
22490;SDS011;11412;50.802;4.350;2022-09-09T15:26:26;1.25;;;0.93;;
22490;SDS011;11412;50.802;4.350;2022-09-09T15:28:52;1.75;;;1.00;;
22490;SDS011;11412;50.802;4.350;2022-09-09T15:31:22;4.65;;;1.15;;
22490;SDS011;11412;50.802;4.350;2022-09-09T15:33:50;4.38;;;1.33;;
22490;SDS011;11412;50.802;4.350;2022-09-09T15:36:23;6.15;;;1.20;;
22490;SDS011;11412;50.802;4.350;2022-09-09T15:38:50;2.60;;;1.13;;
22490;SDS011;11412;50.802;4.350;2022-09-09T15:41:17;2.85;;;1.15;;
22490;SDS011;11412;50.802;4.350;2022-09-09T15:43:44;1.67;;;0.98;;
22490;SDS011;11412;50.802;4.350;2022-09-09T15:48:43;3.70;;;1.20;;
22490;SDS011;11412;50.802;4.350;2022-09-09T15:51:10;3.60;;;1.40;;
22490;SDS011;11412;50.802;4.350;2022-09-09T15:53:39;4.95;;;1.15;;
22490;SDS011;11412;50.802;4.350;2022-09-09T15:56:05;3.97;;;1.65;;
22490;SDS011;11412;50.802;4.350;2022-09-09T15:58:32;3.22;;;0.80;;
22490;SDS011;11412;50.802;4.350;2022-09-09T16:01:02;2.03;;;1.10;;
22490;SDS011;11412;50.802;4.350;2022-09-09T16:03:36;4.05;;;1.10;;
22490;SDS011;11412;50.802;4.350;2022-09-09T16:06:03;2.13;;;1.10;;
22490;SDS011;11412;50.802;4.350;2022-09-09T16:08:33;3.45;;;1.27;;
22490;SDS011;11412;50.802;4.350;2022-09-09T16:11:09;2.13;;;0.80;;
22490;SDS011;11412;50.802;4.350;2022-09-09T16:13:41;2.05;;;1.15;;
22490;SDS011;11412;50.802;4.350;2022-09-09T16:16:08;2.92;;;1.45;;
22490;SDS011;11412;50.802;4.350;2022-09-09T16:18:42;6.20;;;1.20;;
22490;SDS011;11412;50.802;4.350;2022-09-09T16:21:12;2.85;;;1.30;;
22490;SDS011;11412;50.802;4.350;2022-09-09T16:23:40;9.73;;;2.22;;
22490;SDS011;11412;50.802;4.350;2022-09-09T16:26:08;5.00;;;1.40;;
22490;SDS011;11412;50.802;4.350;2022-09-09T16:28:36;4.40;;;1.33;;
22490;SDS011;11412;50.802;4.350;2022-09-09T16:31:04;3.58;;;1.05;;
22490;SDS011;11412;50.802;4.350;2022-09-09T16:33:31;6.63;;;1.02;;
22490;SDS011;11412;50.802;4.350;2022-09-09T16:35:57;2.03;;;1.00;;
22490;SDS011;11412;50.802;4.350;2022-09-09T16:38:22;3.53;;;1.00;;
22490;SDS011;11412;50.802;4.350;2022-09-09T16:40:48;2.22;;;1.00;;
22490;SDS011;11412;50.802;4.350;2022-09-09T16:43:15;3.08;;;0.88;;
22490;SDS011;11412;50.802;4.350;2022-09-09T16:45:44;1.73;;;0.93;;
22490;SDS011;11412;50.802;4.350;2022-09-09T16:48:10;3.38;;;0.88;;
22490;SDS011;11412;50.802;4.350;2022-09-09T16:50:36;0.90;;;0.90;;
22490;SDS011;11412;50.802;4.350;2022-09-09T16:53:04;2.00;;;1.00;;
22490;SDS011;11412;50.802;4.350;2022-09-09T16:55:31;1.27;;;1.10;;
22490;SDS011;11412;50.802;4.350;2022-09-09T16:57:57;3.15;;;1.35;;
22490;SDS011;11412;50.802;4.350;2022-09-09T17:00:23;3.35;;;1.30;;
22490;SDS011;11412;50.802;4.350;2022-09-09T17:02:48;6.90;;;1.67;;
22490;SDS011;11412;50.802;4.350;2022-09-09T17:05:14;4.75;;;1.75;;
22490;SDS011;11412;50.802;4.350;2022-09-09T17:07:40;3.53;;;1.33;;
22490;SDS011;11412;50.802;4.350;2022-09-09T17:10:05;4.15;;;1.83;;
22490;SDS011;11412;50.802;4.350;2022-09-09T17:12:32;1.30;;;1.20;;
22490;SDS011;11412;50.802;4.350;2022-09-09T17:14:58;5.25;;;1.40;;
22490;SDS011;11412;50.802;4.350;2022-09-09T17:17:24;3.67;;;1.20;;
22490;SDS011;11412;50.802;4.350;2022-09-09T17:19:51;1.80;;;0.90;;
22490;SDS011;11412;50.802;4.350;2022-09-09T17:22:17;5.32;;;1.48;;
22490;SDS011;11412;50.802;4.350;2022-09-09T17:24:44;9.15;;;1.45;;
22490;SDS011;11412;50.802;4.350;2022-09-09T17:27:11;7.95;;;1.25;;
22490;SDS011;11412;50.802;4.350;2022-09-09T17:29:38;6.13;;;1.80;;
22490;SDS011;11412;50.802;4.350;2022-09-09T17:32:03;5.15;;;1.42;;
22490;SDS011;11412;50.802;4.350;2022-09-09T17:34:30;10.10;;;1.63;;